sensor_id;sensor_type;location;lat;lon;timestamp;pressure;altitude;pressure_sealevel;temperature
70668;BMP280;58242;51.250;-1.118;2023-01-15T00:01:04;98783.72;;;10.25
70668;BMP280;58242;51.250;-1.118;2023-01-15T00:03:30;98790.53;;;10.22
70668;BMP280;58242;51.250;-1.118;2023-01-15T00:06:01;98791.66;;;10.21
70668;BMP280;58242;51.250;-1.118;2023-01-15T00:08:27;98788.16;;;10.17
70668;BMP280;58242;51.250;-1.118;2023-01-15T00:10:52;98792.72;;;10.17
70668;BMP280;58242;51.250;-1.118;2023-01-15T00:13:17;98801.06;;;10.15
70668;BMP280;58242;51.250;-1.118;2023-01-15T00:15:43;98792.66;;;10.13
70668;BMP280;58242;51.250;-1.118;2023-01-15T00:18:09;98784.56;;;10.10
70668;BMP280;58242;51.250;-1.118;2023-01-15T00:20:34;98771.13;;;10.07
70668;BMP280;58242;51.250;-1.118;2023-01-15T00:22:59;98788.63;;;10.04
70668;BMP280;58242;51.250;-1.118;2023-01-15T00:25:25;98787.06;;;10.03
70668;BMP280;58242;51.250;-1.118;2023-01-15T00:28:11;98797.41;;;10.05
70668;BMP280;58242;51.250;-1.118;2023-01-15T00:30:40;98797.06;;;10.06
70668;BMP280;58242;51.250;-1.118;2023-01-15T00:33:05;98794.81;;;10.08
70668;BMP280;58242;51.250;-1.118;2023-01-15T00:35:31;98787.97;;;10.10
70668;BMP280;58242;51.250;-1.118;2023-01-15T00:37:56;98786.53;;;10.13
70668;BMP280;58242;51.250;-1.118;2023-01-15T00:40:21;98776.97;;;10.12
70668;BMP280;58242;51.250;-1.118;2023-01-15T00:42:47;98782.63;;;10.10
70668;BMP280;58242;51.250;-1.118;2023-01-15T00:45:12;98784.19;;;10.11
70668;BMP280;58242;51.250;-1.118;2023-01-15T00:47:39;98777.75;;;10.12
70668;BMP280;58242;51.250;-1.118;2023-01-15T00:50:08;98768.19;;;10.11
70668;BMP280;58242;51.250;-1.118;2023-01-15T00:52:34;98771.22;;;10.10
70668;BMP280;58242;51.250;-1.118;2023-01-15T00:55:00;98768.53;;;10.10
70668;BMP280;58242;51.250;-1.118;2023-01-15T00:57:26;98761.22;;;10.07
70668;BMP280;58242;51.250;-1.118;2023-01-15T00:59:51;98750.13;;;10.05
70668;BMP280;58242;51.250;-1.118;2023-01-15T01:02:17;98756.91;;;10.03
70668;BMP280;58242;51.250;-1.118;2023-01-15T01:04:42;98756.91;;;10.03
70668;BMP280;58242;51.250;-1.118;2023-01-15T01:07:07;98745.50;;;10.02
70668;BMP280;58242;51.250;-1.118;2023-01-15T01:09:33;98758.84;;;10.02
70668;BMP280;58242;51.250;-1.118;2023-01-15T01:11:58;98755.72;;;10.00
70668;BMP280;58242;51.250;-1.118;2023-01-15T01:14:24;98751.09;;;9.97
70668;BMP280;58242;51.250;-1.118;2023-01-15T01:16:49;98757.16;;;9.94
70668;BMP280;58242;51.250;-1.118;2023-01-15T01:19:17;98757.81;;;9.91
70668;BMP280;58242;51.250;-1.118;2023-01-15T01:21:43;98749.75;;;9.88
70668;BMP280;58242;51.250;-1.118;2023-01-15T01:24:10;98756.56;;;9.86
70668;BMP280;58242;51.250;-1.118;2023-01-15T01:26:36;98763.00;;;9.85
70668;BMP280;58242;51.250;-1.118;2023-01-15T01:29:02;98765.28;;;9.83
70668;BMP280;58242;51.250;-1.118;2023-01-15T01:31:28;98758.72;;;9.80
70668;BMP280;58242;51.250;-1.118;2023-01-15T01:33:56;98762.88;;;9.78
70668;BMP280;58242;51.250;-1.118;2023-01-15T01:36:27;98771.53;;;9.75
70668;BMP280;58242;51.250;-1.118;2023-01-15T01:38:52;98758.91;;;9.72
70668;BMP280;58242;51.250;-1.118;2023-01-15T01:41:18;98776.38;;;9.70
70668;BMP280;58242;51.250;-1.118;2023-01-15T01:43:58;98764.13;;;9.69
70668;BMP280;58242;51.250;-1.118;2023-01-15T01:46:26;98776.28;;;9.66
70668;BMP280;58242;51.250;-1.118;2023-01-15T01:48:55;98772.06;;;9.65
70668;BMP280;58242;51.250;-1.118;2023-01-15T01:51:24;98777.75;;;9.64
70668;BMP280;58242;51.250;-1.118;2023-01-15T01:53:51;98771.97;;;9.62
70668;BMP280;58242;51.250;-1.118;2023-01-15T01:56:17;98765.47;;;9.59
70668;BMP280;58242;51.250;-1.118;2023-01-15T01:58:45;98769.25;;;9.58
70668;BMP280;58242;51.250;-1.118;2023-01-15T02:01:12;98777.59;;;9.57
70668;BMP280;58242;51.250;-1.118;2023-01-15T02:03:38;98771.50;;;9.57
70668;BMP280;58242;51.250;-1.118;2023-01-15T02:06:07;98764.59;;;9.56
70668;BMP280;58242;51.250;-1.118;2023-01-15T02:08:33;98766.09;;;9.53
70668;BMP280;58242;51.250;-1.118;2023-01-15T02:10:59;98764.88;;;9.51
70668;BMP280;58242;51.250;-1.118;2023-01-15T02:13:39;98778.19;;;9.51
70668;BMP280;58242;51.250;-1.118;2023-01-15T02:16:10;98775.28;;;9.56
70668;BMP280;58242;51.250;-1.118;2023-01-15T02:18:43;98770.28;;;9.54
70668;BMP280;58242;51.250;-1.118;2023-01-15T02:29:09;98773.41;;;9.41
70668;BMP280;58242;51.250;-1.118;2023-01-15T02:31:40;98774.09;;;9.38
70668;BMP280;58242;51.250;-1.118;2023-01-15T02:34:18;98780.81;;;9.32
70668;BMP280;58242;51.250;-1.118;2023-01-15T02:36:47;98773.16;;;9.31
70668;BMP280;58242;51.250;-1.118;2023-01-15T02:39:15;98774.97;;;9.27
70668;BMP280;58242;51.250;-1.118;2023-01-15T02:41:47;98773.75;;;9.24
70668;BMP280;58242;51.250;-1.118;2023-01-15T02:44:15;98781.75;;;9.24
70668;BMP280;58242;51.250;-1.118;2023-01-15T02:46:42;98780.88;;;9.21
70668;BMP280;58242;51.250;-1.118;2023-01-15T02:49:10;98785.81;;;9.19
70668;BMP280;58242;51.250;-1.118;2023-01-15T02:51:42;98769.03;;;9.18
70668;BMP280;58242;51.250;-1.118;2023-01-15T02:54:12;98755.25;;;9.16
70668;BMP280;58242;51.250;-1.118;2023-01-15T02:56:38;98758.13;;;9.08
70668;BMP280;58242;51.250;-1.118;2023-01-15T02:59:09;98739.88;;;9.10
70668;BMP280;58242;51.250;-1.118;2023-01-15T03:01:47;98740.97;;;9.09
70668;BMP280;58242;51.250;-1.118;2023-01-15T03:06:57;98730.59;;;9.04
70668;BMP280;58242;51.250;-1.118;2023-01-15T03:09:24;98737.03;;;9.03
70668;BMP280;58242;51.250;-1.118;2023-01-15T03:15:00;98733.53;;;8.99
70668;BMP280;58242;51.250;-1.118;2023-01-15T03:17:43;98755.53;;;8.96
70668;BMP280;58242;51.250;-1.118;2023-01-15T03:20:16;98737.22;;;8.95
70668;BMP280;58242;51.250;-1.118;2023-01-15T03:22:45;98748.66;;;8.95
70668;BMP280;58242;51.250;-1.118;2023-01-15T03:25:20;98760.78;;;8.93
70668;BMP280;58242;51.250;-1.118;2023-01-15T03:27:46;98758.44;;;8.91
70668;BMP280;58242;51.250;-1.118;2023-01-15T03:30:14;98755.78;;;8.91
70668;BMP280;58242;51.250;-1.118;2023-01-15T03:32:40;98757.66;;;8.91
70668;BMP280;58242;51.250;-1.118;2023-01-15T03:35:07;98759.31;;;8.95
70668;BMP280;58242;51.250;-1.118;2023-01-15T03:37:52;98753.28;;;8.98
70668;BMP280;58242;51.250;-1.118;2023-01-15T03:40:17;98758.38;;;9.03
70668;BMP280;58242;51.250;-1.118;2023-01-15T03:42:53;98756.19;;;9.08
70668;BMP280;58242;51.250;-1.118;2023-01-15T03:45:42;98758.19;;;9.11
70668;BMP280;58242;51.250;-1.118;2023-01-15T03:48:41;98764.38;;;9.15
70668;BMP280;58242;51.250;-1.118;2023-01-15T03:51:17;98758.78;;;9.20
70668;BMP280;58242;51.250;-1.118;2023-01-15T03:53:48;98764.97;;;9.24
70668;BMP280;58242;51.250;-1.118;2023-01-15T03:56:36;98739.53;;;9.26
70668;BMP280;58242;51.250;-1.118;2023-01-15T03:59:07;98744.16;;;9.29
70668;BMP280;58242;51.250;-1.118;2023-01-15T04:01:38;98747.25;;;9.31
70668;BMP280;58242;51.250;-1.118;2023-01-15T04:04:05;98743.41;;;9.29
70668;BMP280;58242;51.250;-1.118;2023-01-15T04:06:33;98730.41;;;9.27
70668;BMP280;58242;51.250;-1.118;2023-01-15T04:09:00;98734.47;;;9.22
70668;BMP280;58242;51.250;-1.118;2023-01-15T04:11:27;98746.16;;;9.17
70668;BMP280;58242;51.250;-1.118;2023-01-15T04:13:53;98736.50;;;9.13
70668;BMP280;58242;51.250;-1.118;2023-01-15T04:16:23;98725.44;;;9.11
70668;BMP280;58242;51.250;-1.118;2023-01-15T04:18:50;98732.22;;;9.08
70668;BMP280;58242;51.250;-1.118;2023-01-15T04:21:15;98744.03;;;9.07
70668;BMP280;58242;51.250;-1.118;2023-01-15T04:23:41;98732.13;;;9.05
70668;BMP280;58242;51.250;-1.118;2023-01-15T04:26:06;98734.72;;;9.02
70668;BMP280;58242;51.250;-1.118;2023-01-15T04:28:32;98709.53;;;8.99
70668;BMP280;58242;51.250;-1.118;2023-01-15T04:30:57;98703.03;;;8.97
70668;BMP280;58242;51.250;-1.118;2023-01-15T04:33:24;98719.34;;;8.95
70668;BMP280;58242;51.250;-1.118;2023-01-15T04:35:49;98702.91;;;8.93
70668;BMP280;58242;51.250;-1.118;2023-01-15T04:38:14;98705.16;;;8.91
70668;BMP280;58242;51.250;-1.118;2023-01-15T04:40:42;98700.53;;;8.88
70668;BMP280;58242;51.250;-1.118;2023-01-15T04:43:26;98690.56;;;8.86
70668;BMP280;58242;51.250;-1.118;2023-01-15T04:46:10;98693.88;;;8.83
70668;BMP280;58242;51.250;-1.118;2023-01-15T04:48:37;98708.75;;;8.84
70668;BMP280;58242;51.250;-1.118;2023-01-15T04:51:03;98687.44;;;8.84
70668;BMP280;58242;51.250;-1.118;2023-01-15T04:53:29;98685.91;;;8.83
70668;BMP280;58242;51.250;-1.118;2023-01-15T04:56:02;98706.53;;;8.86
70668;BMP280;58242;51.250;-1.118;2023-01-15T04:58:28;98694.66;;;8.83
70668;BMP280;58242;51.250;-1.118;2023-01-15T05:00:53;98694.66;;;8.83
70668;BMP280;58242;51.250;-1.118;2023-01-15T05:03:19;98696.56;;;8.83
70668;BMP280;58242;51.250;-1.118;2023-01-15T05:05:44;98699.66;;;8.85
70668;BMP280;58242;51.250;-1.118;2023-01-15T05:08:09;98702.66;;;8.83
70668;BMP280;58242;51.250;-1.118;2023-01-15T05:10:35;98703.44;;;8.84
70668;BMP280;58242;51.250;-1.118;2023-01-15T05:13:00;98708.84;;;8.87
70668;BMP280;58242;51.250;-1.118;2023-01-15T05:15:25;98692.53;;;8.88
70668;BMP280;58242;51.250;-1.118;2023-01-15T05:17:50;98683.59;;;8.96
70668;BMP280;58242;51.250;-1.118;2023-01-15T05:20:16;98680.63;;;9.01
70668;BMP280;58242;51.250;-1.118;2023-01-15T05:22:41;98683.38;;;9.05
70668;BMP280;58242;51.250;-1.118;2023-01-15T05:25:07;98683.50;;;9.08
70668;BMP280;58242;51.250;-1.118;2023-01-15T05:27:32;98661.56;;;9.14
70668;BMP280;58242;51.250;-1.118;2023-01-15T05:29:57;98685.63;;;9.18
70668;BMP280;58242;51.250;-1.118;2023-01-15T05:32:23;98674.69;;;9.23
70668;BMP280;58242;51.250;-1.118;2023-01-15T05:34:48;98675.56;;;9.26
70668;BMP280;58242;51.250;-1.118;2023-01-15T05:37:13;98675.25;;;9.31
70668;BMP280;58242;51.250;-1.118;2023-01-15T05:39:39;98662.78;;;9.35
70668;BMP280;58242;51.250;-1.118;2023-01-15T05:42:04;98670.09;;;9.38
70668;BMP280;58242;51.250;-1.118;2023-01-15T05:44:29;98659.06;;;9.39
70668;BMP280;58242;51.250;-1.118;2023-01-15T05:46:58;98643.16;;;9.43
70668;BMP280;58242;51.250;-1.118;2023-01-15T05:49:24;98653.94;;;9.31
70668;BMP280;58242;51.250;-1.118;2023-01-15T05:51:51;98648.19;;;9.29
70668;BMP280;58242;51.250;-1.118;2023-01-15T05:54:19;98641.31;;;9.28
70668;BMP280;58242;51.250;-1.118;2023-01-15T05:56:45;98642.78;;;9.26
70668;BMP280;58242;51.250;-1.118;2023-01-15T05:59:12;98629.72;;;9.21
70668;BMP280;58242;51.250;-1.118;2023-01-15T06:01:38;98622.75;;;9.17
70668;BMP280;58242;51.250;-1.118;2023-01-15T06:04:05;98613.25;;;9.16
70668;BMP280;58242;51.250;-1.118;2023-01-15T06:06:31;98608.56;;;9.13
70668;BMP280;58242;51.250;-1.118;2023-01-15T06:08:57;98606.63;;;9.10
70668;BMP280;58242;51.250;-1.118;2023-01-15T06:11:22;98598.22;;;9.08
70668;BMP280;58242;51.250;-1.118;2023-01-15T06:13:48;98612.97;;;9.05
70668;BMP280;58242;51.250;-1.118;2023-01-15T06:16:13;98602.25;;;9.02
70668;BMP280;58242;51.250;-1.118;2023-01-15T06:18:39;98603.03;;;9.03
70668;BMP280;58242;51.250;-1.118;2023-01-15T06:21:06;98586.69;;;9.04
70668;BMP280;58242;51.250;-1.118;2023-01-15T06:23:32;98582.13;;;9.05
70668;BMP280;58242;51.250;-1.118;2023-01-15T06:26:01;98583.34;;;9.07
70668;BMP280;58242;51.250;-1.118;2023-01-15T06:28:27;98581.00;;;9.05
70668;BMP280;58242;51.250;-1.118;2023-01-15T06:30:52;98589.00;;;9.05
70668;BMP280;58242;51.250;-1.118;2023-01-15T06:33:17;98598.88;;;9.05
70668;BMP280;58242;51.250;-1.118;2023-01-15T06:35:43;98597.34;;;9.04
70668;BMP280;58242;51.250;-1.118;2023-01-15T06:38:08;98582.88;;;9.05
70668;BMP280;58242;51.250;-1.118;2023-01-15T06:40:33;98601.53;;;9.05
70668;BMP280;58242;51.250;-1.118;2023-01-15T06:42:58;98608.75;;;9.05
70668;BMP280;58242;51.250;-1.118;2023-01-15T06:45:42;98615.66;;;9.05
70668;BMP280;58242;51.250;-1.118;2023-01-15T06:48:27;98616.00;;;9.04
70668;BMP280;58242;51.250;-1.118;2023-01-15T06:50:52;98623.22;;;9.04
70668;BMP280;58242;51.250;-1.118;2023-01-15T06:53:18;98618.31;;;9.05
70668;BMP280;58242;51.250;-1.118;2023-01-15T06:55:44;98614.88;;;9.05
70668;BMP280;58242;51.250;-1.118;2023-01-15T06:58:09;98617.97;;;9.07
70668;BMP280;58242;51.250;-1.118;2023-01-15T07:00:34;98617.97;;;9.07
70668;BMP280;58242;51.250;-1.118;2023-01-15T07:03:00;98612.72;;;9.10
70668;BMP280;58242;51.250;-1.118;2023-01-15T07:05:26;98602.91;;;9.14
70668;BMP280;58242;51.250;-1.118;2023-01-15T07:07:52;98592.72;;;9.20
70668;BMP280;58242;51.250;-1.118;2023-01-15T07:10:17;98596.69;;;9.25
70668;BMP280;58242;51.250;-1.118;2023-01-15T07:12:43;98605.53;;;9.29
70668;BMP280;58242;51.250;-1.118;2023-01-15T07:15:09;98615.50;;;9.32
70668;BMP280;58242;51.250;-1.118;2023-01-15T07:17:34;98616.69;;;9.35
70668;BMP280;58242;51.250;-1.118;2023-01-15T07:20:00;98615.22;;;9.37
70668;BMP280;58242;51.250;-1.118;2023-01-15T07:22:25;98627.44;;;9.38
70668;BMP280;58242;51.250;-1.118;2023-01-15T07:24:50;98629.16;;;9.46
70668;BMP280;58242;51.250;-1.118;2023-01-15T07:27:16;98630.81;;;9.54
70668;BMP280;58242;51.250;-1.118;2023-01-15T07:29:41;98640.78;;;9.57
70668;BMP280;58242;51.250;-1.118;2023-01-15T07:32:06;98649.97;;;9.59
70668;BMP280;58242;51.250;-1.118;2023-01-15T07:34:32;98649.72;;;9.64
70668;BMP280;58242;51.250;-1.118;2023-01-15T07:36:57;98636.44;;;9.67
70668;BMP280;58242;51.250;-1.118;2023-01-15T07:39:22;98641.50;;;9.72
70668;BMP280;58242;51.250;-1.118;2023-01-15T07:41:48;98638.56;;;9.77
70668;BMP280;58242;51.250;-1.118;2023-01-15T07:44:32;98646.31;;;9.82
70668;BMP280;58242;51.250;-1.118;2023-01-15T07:47:22;98647.66;;;9.91
70668;BMP280;58242;51.250;-1.118;2023-01-15T07:50:09;98649.69;;;9.97
70668;BMP280;58242;51.250;-1.118;2023-01-15T07:52:35;98660.06;;;10.02
70668;BMP280;58242;51.250;-1.118;2023-01-15T07:55:00;98656.00;;;10.08
70668;BMP280;58242;51.250;-1.118;2023-01-15T07:57:26;98667.56;;;10.15
70668;BMP280;58242;51.250;-1.118;2023-01-15T07:59:51;98665.41;;;10.21
70668;BMP280;58242;51.250;-1.118;2023-01-15T08:02:17;98667.75;;;10.25
70668;BMP280;58242;51.250;-1.118;2023-01-15T08:04:43;98665.88;;;10.26
70668;BMP280;58242;51.250;-1.118;2023-01-15T08:07:08;98670.50;;;10.29
70668;BMP280;58242;51.250;-1.118;2023-01-15T08:09:34;98673.94;;;10.29
70668;BMP280;58242;51.250;-1.118;2023-01-15T08:12:00;98668.59;;;10.29
70668;BMP280;58242;51.250;-1.118;2023-01-15T08:14:44;98670.16;;;10.30
70668;BMP280;58242;51.250;-1.118;2023-01-15T08:17:33;98670.94;;;10.31
70668;BMP280;58242;51.250;-1.118;2023-01-15T08:19:59;98667.13;;;10.32
70668;BMP280;58242;51.250;-1.118;2023-01-15T08:22:24;98658.41;;;10.35
70668;BMP280;58242;51.250;-1.118;2023-01-15T08:24:49;98672.25;;;10.40
70668;BMP280;58242;51.250;-1.118;2023-01-15T08:27:15;98658.53;;;10.42
70668;BMP280;58242;51.250;-1.118;2023-01-15T08:29:40;98662.75;;;10.43
70668;BMP280;58242;51.250;-1.118;2023-01-15T08:32:06;98670.06;;;10.45
70668;BMP280;58242;51.250;-1.118;2023-01-15T08:34:31;98658.72;;;10.52
70668;BMP280;58242;51.250;-1.118;2023-01-15T08:36:56;98648.47;;;10.54
70668;BMP280;58242;51.250;-1.118;2023-01-15T08:39:27;98670.59;;;10.54
70668;BMP280;58242;51.250;-1.118;2023-01-15T08:41:53;98662.94;;;10.53
70668;BMP280;58242;51.250;-1.118;2023-01-15T08:44:19;98679.03;;;10.56
70668;BMP280;58242;51.250;-1.118;2023-01-15T08:46:46;98684.06;;;10.61
70668;BMP280;58242;51.250;-1.118;2023-01-15T08:49:12;98679.63;;;10.68
70668;BMP280;58242;51.250;-1.118;2023-01-15T08:51:37;98680.53;;;10.76
70668;BMP280;58242;51.250;-1.118;2023-01-15T08:54:03;98685.19;;;10.82
70668;BMP280;58242;51.250;-1.118;2023-01-15T08:56:28;98694.47;;;10.88
70668;BMP280;58242;51.250;-1.118;2023-01-15T08:58:53;98689.97;;;10.92
70668;BMP280;58242;51.250;-1.118;2023-01-15T09:01:19;98699.94;;;10.94
70668;BMP280;58242;51.250;-1.118;2023-01-15T09:03:44;98697.31;;;10.98
70668;BMP280;58242;51.250;-1.118;2023-01-15T09:06:10;98710.75;;;11.01
70668;BMP280;58242;51.250;-1.118;2023-01-15T09:08:36;98713.47;;;11.05
70668;BMP280;58242;51.250;-1.118;2023-01-15T09:11:03;98703.56;;;11.05
70668;BMP280;58242;51.250;-1.118;2023-01-15T09:13:29;98702.44;;;11.06
70668;BMP280;58242;51.250;-1.118;2023-01-15T09:16:02;98711.56;;;11.05
70668;BMP280;58242;51.250;-1.118;2023-01-15T09:18:28;98706.53;;;11.00
70668;BMP280;58242;51.250;-1.118;2023-01-15T09:20:53;98712.59;;;10.97
70668;BMP280;58242;51.250;-1.118;2023-01-15T09:23:19;98707.97;;;10.94
70668;BMP280;58242;51.250;-1.118;2023-01-15T09:25:55;98705.56;;;10.90
70668;BMP280;58242;51.250;-1.118;2023-01-15T09:28:21;98706.72;;;10.89
70668;BMP280;58242;51.250;-1.118;2023-01-15T09:30:46;98707.06;;;10.87
70668;BMP280;58242;51.250;-1.118;2023-01-15T09:33:11;98707.13;;;10.91
70668;BMP280;58242;51.250;-1.118;2023-01-15T09:35:39;98702.59;;;10.94
70668;BMP280;58242;51.250;-1.118;2023-01-15T09:38:04;98708.06;;;11.01
70668;BMP280;58242;51.250;-1.118;2023-01-15T09:40:46;98718.88;;;11.08
70668;BMP280;58242;51.250;-1.118;2023-01-15T09:43:32;98699.88;;;11.13
70668;BMP280;58242;51.250;-1.118;2023-01-15T09:46:15;98722.81;;;11.14
70668;BMP280;58242;51.250;-1.118;2023-01-15T09:51:43;98733.25;;;11.22
70668;BMP280;58242;51.250;-1.118;2023-01-15T09:57:03;98744.63;;;11.38
70668;BMP280;58242;51.250;-1.118;2023-01-15T09:59:35;98745.72;;;11.59
70668;BMP280;58242;51.250;-1.118;2023-01-15T10:05:03;98738.78;;;12.08
70668;BMP280;58242;51.250;-1.118;2023-01-15T10:07:45;98732.44;;;12.23
70668;BMP280;58242;51.250;-1.118;2023-01-15T10:10:19;98731.84;;;12.36
70668;BMP280;58242;51.250;-1.118;2023-01-15T10:12:49;98732.13;;;12.60
70668;BMP280;58242;51.250;-1.118;2023-01-15T10:17:52;98733.94;;;13.27
70668;BMP280;58242;51.250;-1.118;2023-01-15T10:25:49;98704.13;;;15.18
70668;BMP280;58242;51.250;-1.118;2023-01-15T10:28:42;98719.09;;;15.67
70668;BMP280;58242;51.250;-1.118;2023-01-15T10:31:22;98719.78;;;16.08
70668;BMP280;58242;51.250;-1.118;2023-01-15T10:34:32;98715.50;;;16.24
70668;BMP280;58242;51.250;-1.118;2023-01-15T10:37:24;98721.31;;;16.12
70668;BMP280;58242;51.250;-1.118;2023-01-15T10:42:54;98727.16;;;15.74
70668;BMP280;58242;51.250;-1.118;2023-01-15T10:45:26;98733.72;;;15.39
70668;BMP280;58242;51.250;-1.118;2023-01-15T10:48:04;98741.41;;;15.23
70668;BMP280;58242;51.250;-1.118;2023-01-15T10:50:34;98742.94;;;15.07
70668;BMP280;58242;51.250;-1.118;2023-01-15T10:58:29;98755.63;;;15.00
70668;BMP280;58242;51.250;-1.118;2023-01-15T11:01:02;98747.94;;;15.08
70668;BMP280;58242;51.250;-1.118;2023-01-15T11:03:36;98757.19;;;15.14
70668;BMP280;58242;51.250;-1.118;2023-01-15T11:06:03;98750.63;;;15.15
70668;BMP280;58242;51.250;-1.118;2023-01-15T11:08:30;98757.56;;;15.16
70668;BMP280;58242;51.250;-1.118;2023-01-15T11:11:15;98751.38;;;15.12
70668;BMP280;58242;51.250;-1.118;2023-01-15T11:13:51;98758.69;;;15.05
70668;BMP280;58242;51.250;-1.118;2023-01-15T11:16:36;98758.69;;;14.98
70668;BMP280;58242;51.250;-1.118;2023-01-15T11:19:09;98742.91;;;15.00
70668;BMP280;58242;51.250;-1.118;2023-01-15T11:21:56;98744.88;;;15.10
70668;BMP280;58242;51.250;-1.118;2023-01-15T11:24:22;98740.25;;;15.10
70668;BMP280;58242;51.250;-1.118;2023-01-15T11:26:50;98726.41;;;15.05
70668;BMP280;58242;51.250;-1.118;2023-01-15T11:29:29;98728.31;;;15.01
70668;BMP280;58242;51.250;-1.118;2023-01-15T11:31:55;98723.31;;;14.96
70668;BMP280;58242;51.250;-1.118;2023-01-15T11:34:21;98728.69;;;14.93
70668;BMP280;58242;51.250;-1.118;2023-01-15T11:36:46;98721.38;;;14.90
70668;BMP280;58242;51.250;-1.118;2023-01-15T11:39:26;98721.75;;;14.88
70668;BMP280;58242;51.250;-1.118;2023-01-15T11:42:11;98726.72;;;14.83
70668;BMP280;58242;51.250;-1.118;2023-01-15T11:44:58;98740.16;;;14.73
70668;BMP280;58242;51.250;-1.118;2023-01-15T11:47:54;98714.75;;;14.57
70668;BMP280;58242;51.250;-1.118;2023-01-15T11:51:11;98735.81;;;14.41
70668;BMP280;58242;51.250;-1.118;2023-01-15T11:53:44;98726.97;;;14.34
70668;BMP280;58242;51.250;-1.118;2023-01-15T11:56:14;98724.69;;;14.39
70668;BMP280;58242;51.250;-1.118;2023-01-15T11:58:48;98725.47;;;14.47
70668;BMP280;58242;51.250;-1.118;2023-01-15T12:01:21;98718.94;;;14.48
70668;BMP280;58242;51.250;-1.118;2023-01-15T12:03:50;98732.00;;;14.42
70668;BMP280;58242;51.250;-1.118;2023-01-15T12:06:18;98718.53;;;14.36
70668;BMP280;58242;51.250;-1.118;2023-01-15T12:08:50;98720.44;;;14.32
70668;BMP280;58242;51.250;-1.118;2023-01-15T12:16:45;98709.28;;;14.37
70668;BMP280;58242;51.250;-1.118;2023-01-15T12:33:19;98702.00;;;14.30
70668;BMP280;58242;51.250;-1.118;2023-01-15T12:36:07;98692.00;;;14.24
70668;BMP280;58242;51.250;-1.118;2023-01-15T12:38:50;98696.19;;;14.18
70668;BMP280;58242;51.250;-1.118;2023-01-15T12:41:25;98691.22;;;14.27
70668;BMP280;58242;51.250;-1.118;2023-01-15T12:44:15;98694.34;;;14.36
70668;BMP280;58242;51.250;-1.118;2023-01-15T12:47:00;98688.97;;;14.36
70668;BMP280;58242;51.250;-1.118;2023-01-15T12:49:35;98683.97;;;14.44
70668;BMP280;58242;51.250;-1.118;2023-01-15T12:52:08;98680.91;;;14.46
70668;BMP280;58242;51.250;-1.118;2023-01-15T12:54:41;98685.16;;;14.43
70668;BMP280;58242;51.250;-1.118;2023-01-15T12:57:16;98672.06;;;14.38
70668;BMP280;58242;51.250;-1.118;2023-01-15T13:02:47;98671.97;;;14.11
70668;BMP280;58242;51.250;-1.118;2023-01-15T13:05:17;98670.38;;;13.97
70668;BMP280;58242;51.250;-1.118;2023-01-15T13:07:55;98668.03;;;13.85
70668;BMP280;58242;51.250;-1.118;2023-01-15T13:10:25;98659.16;;;13.81
70668;BMP280;58242;51.250;-1.118;2023-01-15T13:12:53;98651.47;;;13.80
70668;BMP280;58242;51.250;-1.118;2023-01-15T13:15:24;98648.44;;;13.81
70668;BMP280;58242;51.250;-1.118;2023-01-15T13:18:17;98655.72;;;13.84
70668;BMP280;58242;51.250;-1.118;2023-01-15T13:20:49;98643.84;;;13.82
70668;BMP280;58242;51.250;-1.118;2023-01-15T13:29:17;98636.88;;;13.77
70668;BMP280;58242;51.250;-1.118;2023-01-15T13:37:09;98619.22;;;13.76
70668;BMP280;58242;51.250;-1.118;2023-01-15T13:39:39;98615.38;;;13.77
70668;BMP280;58242;51.250;-1.118;2023-01-15T13:42:15;98618.06;;;13.77
70668;BMP280;58242;51.250;-1.118;2023-01-15T13:44:56;98615.75;;;13.76
70668;BMP280;58242;51.250;-1.118;2023-01-15T13:47:27;98610.38;;;13.76
70668;BMP280;58242;51.250;-1.118;2023-01-15T13:50:00;98610.38;;;13.72
70668;BMP280;58242;51.250;-1.118;2023-01-15T13:52:30;98604.22;;;13.72
70668;BMP280;58242;51.250;-1.118;2023-01-15T13:55:11;98601.53;;;13.68
70668;BMP280;58242;51.250;-1.118;2023-01-15T13:57:41;98600.00;;;13.68
70668;BMP280;58242;51.250;-1.118;2023-01-15T14:03:01;98599.25;;;13.70
70668;BMP280;58242;51.250;-1.118;2023-01-15T14:05:34;98599.63;;;13.72
70668;BMP280;58242;51.250;-1.118;2023-01-15T14:08:01;98585.44;;;13.72
70668;BMP280;58242;51.250;-1.118;2023-01-15T14:10:36;98589.31;;;13.74
70668;BMP280;58242;51.250;-1.118;2023-01-15T14:20:33;98591.19;;;13.67
70668;BMP280;58242;51.250;-1.118;2023-01-15T14:26:13;98588.16;;;13.75
70668;BMP280;58242;51.250;-1.118;2023-01-15T14:34:17;98583.97;;;13.81
70668;BMP280;58242;51.250;-1.118;2023-01-15T14:37:03;98587.03;;;13.80
70668;BMP280;58242;51.250;-1.118;2023-01-15T14:42:08;98588.97;;;13.79
70668;BMP280;58242;51.250;-1.118;2023-01-15T14:45:07;98589.31;;;13.74
70668;BMP280;58242;51.250;-1.118;2023-01-15T14:47:48;98594.25;;;13.72
70668;BMP280;58242;51.250;-1.118;2023-01-15T14:50:38;98596.94;;;13.72
70668;BMP280;58242;51.250;-1.118;2023-01-15T14:55:37;98595.03;;;13.76
70668;BMP280;58242;51.250;-1.118;2023-01-15T14:58:13;98592.34;;;13.76
70668;BMP280;58242;51.250;-1.118;2023-01-15T15:00:43;98588.50;;;13.70
70668;BMP280;58242;51.250;-1.118;2023-01-15T15:03:16;98585.03;;;13.60
70668;BMP280;58242;51.250;-1.118;2023-01-15T15:05:44;98595.66;;;13.46
70668;BMP280;58242;51.250;-1.118;2023-01-15T15:08:13;98587.94;;;13.34
70668;BMP280;58242;51.250;-1.118;2023-01-15T15:10:40;98588.63;;;13.21
70668;BMP280;58242;51.250;-1.118;2023-01-15T15:16:16;98601.06;;;12.90
70668;BMP280;58242;51.250;-1.118;2023-01-15T15:18:47;98595.22;;;12.82
70668;BMP280;58242;51.250;-1.118;2023-01-15T15:21:25;98600.94;;;12.73
70668;BMP280;58242;51.250;-1.118;2023-01-15T15:24:01;98597.44;;;12.66
70668;BMP280;58242;51.250;-1.118;2023-01-15T15:26:29;98599.66;;;12.61
70668;BMP280;58242;51.250;-1.118;2023-01-15T15:29:00;98596.13;;;12.53
70668;BMP280;58242;51.250;-1.118;2023-01-15T15:31:26;98601.03;;;12.48
70668;BMP280;58242;51.250;-1.118;2023-01-15T15:33:53;98602.91;;;12.41
70668;BMP280;58242;51.250;-1.118;2023-01-15T15:36:21;98602.06;;;12.33
70668;BMP280;58242;51.250;-1.118;2023-01-15T15:38:55;98598.19;;;12.28
70668;BMP280;58242;51.250;-1.118;2023-01-15T15:41:21;98608.84;;;12.21
70668;BMP280;58242;51.250;-1.118;2023-01-15T15:44:15;98609.91;;;12.13
70668;BMP280;58242;51.250;-1.118;2023-01-15T15:47:19;98606.72;;;12.04
70668;BMP280;58242;51.250;-1.118;2023-01-15T15:50:02;98597.09;;;11.97
70668;BMP280;58242;51.250;-1.118;2023-01-15T15:52:28;98589.72;;;11.87
70668;BMP280;58242;51.250;-1.118;2023-01-15T15:55:00;98592.72;;;11.82
70668;BMP280;58242;51.250;-1.118;2023-01-15T15:57:29;98596.81;;;11.76
70668;BMP280;58242;51.250;-1.118;2023-01-15T15:59:55;98597.19;;;11.71